Time;durP1;ratioP1;P1;durP2;ratioP2;P2;SDS_P1;SDS_P2;PMS_P1;PMS_P2;Temp;Humidity;BMP_temperature;BMP_pressure;BME280_temperature;BME280_humidity;BME280_pressure;Samples;Min_cycle;Max_cycle;Signal;HPM_P1;HPM_P2
2021/12/25 00:00:22;;;;;;;81.93;41.60;;;0.80;99.90;;;;;;4141025;28;20314;-56
2021/12/25 00:02:23;;;;;;;86.40;42.97;;;0.80;99.90;;;;;;4140317;28;20303;-57
2021/12/25 00:04:24;;;;;;;88.73;45.57;;;0.80;99.90;;;;;;4141393;28;20330;-58
2021/12/25 00:06:26;;;;;;;83.27;43.20;;;0.80;99.90;;;;;;4140456;28;20247;-56
2021/12/25 00:08:30;;;;;;;93.03;47.93;;;0.90;99.90;;;;;;4140625;28;20664;-57
2021/12/25 00:10:32;;;;;;;81.97;42.57;;;0.90;99.90;;;;;;4140620;28;20305;-55
2021/12/25 00:12:33;;;;;;;83.37;42.50;;;0.90;99.90;;;;;;4140355;28;20699;-57
2021/12/25 00:14:35;;;;;;;74.67;40.80;;;0.90;99.90;;;;;;4141118;28;20668;-58
2021/12/25 00:16:37;;;;;;;106.93;50.90;;;1.00;99.90;;;;;;4139888;28;20663;-56
2021/12/25 00:18:41;;;;;;;97.53;50.93;;;1.00;99.90;;;;;;4141828;28;20299;-57
2021/12/25 00:20:42;;;;;;;85.77;44.17;;;1.00;99.90;;;;;;4139758;28;20276;-56
2021/12/25 00:22:44;;;;;;;84.37;43.20;;;1.00;99.90;;;;;;4141128;28;20361;-56
2021/12/25 00:24:46;;;;;;;98.43;49.97;;;1.00;99.90;;;;;;4138776;28;20263;-60
2021/12/25 00:28:57;;;;;;;90.10;43.90;;;1.00;99.90;;;;;;4139512;28;20345;-51
2021/12/25 00:33:17;;;;;;;81.67;40.90;;;1.00;99.90;;;;;;4140011;28;20376;-58
2021/12/25 00:35:19;;;;;;;83.30;42.43;;;1.00;99.90;;;;;;4141277;28;20279;-54
2021/12/25 00:37:20;;;;;;;77.00;40.67;;;1.00;99.90;;;;;;4139793;28;20322;-59
2021/12/25 00:39:21;;;;;;;78.20;40.07;;;1.00;99.90;;;;;;4140980;28;20271;-58
2021/12/25 00:41:24;;;;;;;84.73;45.27;;;1.00;99.90;;;;;;4139864;28;20347;-60
2021/12/25 00:43:25;;;;;;;78.17;41.83;;;1.00;99.90;;;;;;4141188;28;20271;-56
2021/12/25 00:45:26;;;;;;;87.63;43.43;;;1.00;99.90;;;;;;4140257;28;20321;-56
2021/12/25 00:47:27;;;;;;;78.13;41.70;;;1.00;99.90;;;;;;4138959;28;20334;-58
2021/12/25 00:49:29;;;;;;;84.73;43.33;;;1.00;99.90;;;;;;4140924;28;20706;-59
2021/12/25 00:51:30;;;;;;;120.97;61.83;;;0.90;99.90;;;;;;4139986;28;20272;-56
2021/12/25 00:53:32;;;;;;;101.60;51.03;;;0.90;99.90;;;;;;4141237;28;20325;-56
2021/12/25 00:55:34;;;;;;;92.00;46.77;;;0.80;99.90;;;;;;4139425;28;20283;-58
2021/12/25 00:57:36;;;;;;;88.87;45.20;;;0.80;99.90;;;;;;4140977;28;20271;-58
2021/12/25 00:59:37;;;;;;;112.73;56.47;;;0.70;99.90;;;;;;4139239;28;20272;-59
2021/12/25 01:01:38;;;;;;;102.33;53.57;;;0.60;99.90;;;;;;4140609;28;20275;-58
2021/12/25 01:03:39;;;;;;;94.40;48.43;;;0.60;99.90;;;;;;4139303;28;20742;-59
2021/12/25 01:05:41;;;;;;;106.83;51.53;;;0.60;99.90;;;;;;4141188;28;20272;-57
2021/12/25 01:07:43;;;;;;;131.37;59.90;;;0.60;99.90;;;;;;4139626;28;20786;-58
2021/12/25 01:09:44;;;;;;;111.83;56.27;;;0.60;99.90;;;;;;4144028;28;20728;-58
2021/12/25 01:11:48;;;;;;;97.67;48.17;;;0.60;99.90;;;;;;4142709;28;20325;-57
2021/12/25 01:13:57;;;;;;;90.20;46.50;;;0.60;99.90;;;;;;4143013;28;20287;-54
2021/12/25 01:23:07;;;;;;;92.33;45.90;;;0.80;99.90;;;;;;4143424;28;20133;-55
2021/12/25 01:36:08;;;;;;;88.10;46.77;;;0.70;99.90;;;;;;4143151;28;20275;-58
2021/12/25 01:47:47;;;;;;;86.67;44.50;;;0.70;99.90;;;;;;4141905;28;20625;-57
2021/12/25 01:49:09;;;;;;;74.93;38.77;;;0.80;99.90;;;;;;4143717;28;21034;-57
2021/12/25 01:51:12;;;;;;;81.70;40.90;;;0.80;99.90;;;;;;4142078;28;20321;-53
2021/12/25 01:53:13;;;;;;;71.33;37.47;;;0.80;99.90;;;;;;4142730;28;20283;-58
2021/12/25 01:55:23;;;;;;;92.30;47.13;;;0.80;99.90;;;;;;4141933;28;20267;-58
2021/12/25 01:57:24;;;;;;;80.93;39.90;;;0.80;99.90;;;;;;4142937;28;20279;-58
2021/12/25 01:59:26;;;;;;;80.80;41.67;;;0.70;99.90;;;;;;4141324;28;20267;-58
2021/12/25 02:01:27;;;;;;;81.67;41.20;;;0.80;99.90;;;;;;4142760;28;20287;-56
2021/12/25 02:03:32;;;;;;;81.03;41.50;;;0.80;99.90;;;;;;4141435;28;20287;-58
2021/12/25 02:05:33;;;;;;;201.47;86.50;;;0.80;99.90;;;;;;4142378;28;20279;-55
2021/12/25 02:07:34;;;;;;;142.77;65.93;;;0.90;99.90;;;;;;4142174;28;20255;-57
2021/12/25 02:09:36;;;;;;;90.63;47.90;;;0.90;99.90;;;;;;4142019;28;20736;-55
2021/12/25 02:11:37;;;;;;;108.47;56.20;;;0.90;99.90;;;;;;4142367;28;20271;-55
2021/12/25 02:13:42;;;;;;;117.13;55.73;;;0.90;99.90;;;;;;4141286;28;20252;-56
2021/12/25 02:15:46;;;;;;;96.80;49.20;;;0.80;99.90;;;;;;4142805;28;20699;-64
2021/12/25 02:20:12;;;;;;;103.97;49.63;;;0.70;99.90;;;;;;4141992;28;20272;-60
2021/12/25 02:22:13;;;;;;;98.17;50.10;;;0.70;99.90;;;;;;4141444;28;20287;-57
2021/12/25 02:24:14;;;;;;;110.47;54.10;;;0.70;99.90;;;;;;4142347;28;20275;-56
2021/12/25 02:26:20;;;;;;;105.57;53.73;;;0.70;99.90;;;;;;4141346;28;21059;-57
2021/12/25 02:28:23;;;;;;;119.20;56.53;;;0.80;99.90;;;;;;4142717;28;20329;-57
2021/12/25 02:30:25;;;;;;;161.50;78.73;;;0.80;99.90;;;;;;4140617;28;20264;-54
2021/12/25 02:32:26;;;;;;;129.80;65.90;;;0.80;99.90;;;;;;4142434;28;20699;-58
2021/12/25 02:34:27;;;;;;;105.07;53.10;;;0.80;99.90;;;;;;4141275;28;21276;-57
2021/12/25 02:36:28;;;;;;;87.77;46.00;;;0.80;99.90;;;;;;4142666;28;20333;-57
2021/12/25 02:38:29;;;;;;;95.63;48.57;;;0.80;99.90;;;;;;4141181;28;20730;-56
2021/12/25 02:40:31;;;;;;;91.63;46.63;;;0.80;99.90;;;;;;4142330;28;20329;-55
2021/12/25 02:42:34;;;;;;;91.43;46.93;;;0.90;99.90;;;;;;4141093;28;20624;-58
2021/12/25 02:44:35;;;;;;;97.43;49.87;;;0.80;99.90;;;;;;4141817;28;20279;-56
2021/12/25 02:46:36;;;;;;;94.27;48.93;;;0.90;99.90;;;;;;4141471;28;20318;-57
2021/12/25 02:48:38;;;;;;;86.47;45.90;;;0.90;99.90;;;;;;4141953;28;20671;-55
2021/12/25 02:50:40;;;;;;;93.63;47.70;;;0.90;99.90;;;;;;4141463;28;20264;-56
2021/12/25 02:52:43;;;;;;;84.03;45.13;;;0.80;99.90;;;;;;4141251;28;20267;-57
2021/12/25 02:54:45;;;;;;;82.60;44.23;;;0.90;99.90;;;;;;4142077;28;20271;-58
2021/12/25 02:56:46;;;;;;;86.87;44.33;;;0.90;99.90;;;;;;4140888;28;20264;-55
2021/12/25 02:58:47;;;;;;;88.10;45.87;;;0.90;99.90;;;;;;4142369;28;20330;-55
2021/12/25 03:01:02;;;;;;;87.87;45.57;;;0.90;99.90;;;;;;4140630;28;20318;-56
2021/12/25 03:03:05;;;;;;;82.63;43.83;;;0.90;99.90;;;;;;4141920;28;20703;-54
2021/12/25 03:05:06;;;;;;;88.63;45.27;;;0.90;99.90;;;;;;4140610;28;20369;-58
2021/12/25 03:07:09;;;;;;;97.67;49.83;;;0.90;99.90;;;;;;4142304;28;20334;-54
2021/12/25 03:09:11;;;;;;;91.03;47.93;;;0.90;99.90;;;;;;4140495;28;20327;-57
2021/12/25 03:11:15;;;;;;;87.80;47.50;;;1.00;99.90;;;;;;4141923;28;20275;-56
2021/12/25 03:13:30;;;;;;;94.30;49.47;;;0.90;99.90;;;;;;4140691;28;20839;-53
2021/12/25 03:15:51;;;;;;;96.70;47.20;;;0.90;99.90;;;;;;4141354;28;20775;-62
2021/12/25 03:17:53;;;;;;;89.90;44.40;;;0.90;99.90;;;;;;4140560;28;20365;-57
2021/12/25 03:19:55;;;;;;;89.80;44.80;;;1.00;99.90;;;;;;4141989;28;20076;-57
2021/12/25 03:21:57;;;;;;;88.17;43.73;;;1.00;99.90;;;;;;4140614;28;20325;-53
2021/12/25 03:23:59;;;;;;;82.57;43.20;;;1.00;99.90;;;;;;4142042;28;20314;-57
2021/12/25 03:26:02;;;;;;;92.03;46.90;;;1.10;99.90;;;;;;4139394;28;20385;-60
2021/12/25 03:28:03;;;;;;;85.37;44.17;;;1.10;99.90;;;;;;4141489;28;20333;-57
2021/12/25 03:30:07;;;;;;;89.77;44.93;;;1.10;99.90;;;;;;4140096;28;20652;-57
2021/12/25 03:32:10;;;;;;;80.33;41.07;;;1.10;99.90;;;;;;4140861;28;20291;-54
2021/12/25 03:34:11;;;;;;;75.30;38.23;;;1.00;99.90;;;;;;4140816;28;20286;-55
2021/12/25 03:36:13;;;;;;;80.67;40.93;;;1.00;99.90;;;;;;4141059;28;20661;-58
2021/12/25 03:38:19;;;;;;;80.23;42.03;;;1.00;99.90;;;;;;4140557;28;20283;-62
2021/12/25 03:40:20;;;;;;;95.33;45.87;;;1.00;99.90;;;;;;4140486;28;20807;-57
2021/12/25 03:42:21;;;;;;;79.03;41.43;;;1.00;99.90;;;;;;4141037;28;20271;-57
2021/12/25 03:44:23;;;;;;;79.40;40.87;;;1.00;99.90;;;;;;4139465;28;20267;-53
2021/12/25 03:46:25;;;;;;;77.37;42.33;;;1.00;99.90;;;;;;4141503;28;20318;-62
2021/12/25 03:59:28;;;;;;;67.47;34.95;;;0.90;99.90;;;;;;4141831;28;20687;-56
2021/12/25 04:04:00;;;;;;;76.22;37.33;;;0.90;99.90;;;;;;4141349;28;20349;-58
2021/12/25 04:06:07;;;;;;;76.23;38.07;;;0.80;99.90;;;;;;4140293;28;20593;-56
2021/12/25 04:08:11;;;;;;;85.03;41.27;;;0.80;99.90;;;;;;4141366;28;20354;-57
2021/12/25 04:10:12;;;;;;;68.53;36.47;;;0.70;99.90;;;;;;4140342;28;20321;-56
2021/12/25 04:12:14;;;;;;;74.77;38.93;;;0.70;99.90;;;;;;4141492;28;20337;-57
2021/12/25 04:14:16;;;;;;;74.03;38.57;;;0.70;99.90;;;;;;4139751;28;20322;-53
2021/12/25 04:16:17;;;;;;;77.70;39.63;;;0.70;99.90;;;;;;4141472;28;20267;-57
2021/12/25 04:18:20;;;;;;;85.60;45.00;;;0.70;99.90;;;;;;4140043;28;20272;-55
2021/12/25 04:20:21;;;;;;;89.73;47.70;;;0.70;99.90;;;;;;4141552;28;20275;-57
2021/12/25 04:22:32;;;;;;;82.93;41.97;;;0.70;99.90;;;;;;4140044;28;20357;-56
2021/12/25 04:24:38;;;;;;;86.30;45.10;;;0.70;99.90;;;;;;4141130;28;20735;-56
2021/12/25 04:26:42;;;;;;;92.13;44.30;;;0.80;99.90;;;;;;4139914;28;20271;-56
2021/12/25 04:28:49;;;;;;;89.43;45.57;;;0.80;99.90;;;;;;4140688;28;20271;-57
2021/12/25 05:05:29;;;;;;;80.15;40.65;;;1.10;99.90;;;;;;4142827;28;20279;-54
2021/12/25 05:07:30;;;;;;;80.83;41.33;;;1.10;99.90;;;;;;4143389;28;20069;-55
2021/12/25 05:09:31;;;;;;;85.63;43.13;;;1.10;99.90;;;;;;4142914;28;20290;-55
2021/12/25 05:11:32;;;;;;;69.87;37.67;;;1.20;99.90;;;;;;4143253;28;20330;-57
2021/12/25 05:13:34;;;;;;;70.17;37.50;;;1.10;99.90;;;;;;4143047;28;20247;-56
2021/12/25 05:15:35;;;;;;;69.50;37.60;;;1.20;99.90;;;;;;4142994;28;20317;-58
2021/12/25 05:17:36;;;;;;;71.97;38.20;;;1.20;99.90;;;;;;4143164;28;20251;-58
2021/12/25 05:19:38;;;;;;;70.60;36.83;;;1.20;99.90;;;;;;4143104;28;20259;-53
2021/12/25 05:21:40;;;;;;;73.80;38.43;;;1.20;99.90;;;;;;4143639;28;20290;-58
2021/12/25 05:23:41;;;;;;;70.30;36.73;;;1.30;99.90;;;;;;4142637;28;20723;-58
2021/12/25 05:25:42;;;;;;;66.50;35.43;;;1.20;99.90;;;;;;4143825;28;20260;-57
2021/12/25 05:27:45;;;;;;;61.73;33.83;;;1.20;99.90;;;;;;4141919;28;20317;-52
2021/12/25 05:29:47;;;;;;;65.03;33.93;;;1.30;99.90;;;;;;4143330;28;20668;-58
2021/12/25 05:31:48;;;;;;;70.17;35.60;;;1.20;99.90;;;;;;4142164;28;20317;-57
2021/12/25 05:33:49;;;;;;;63.17;34.90;;;1.30;99.90;;;;;;4143549;28;20267;-55
2021/12/25 05:35:50;;;;;;;67.87;34.50;;;1.30;99.90;;;;;;4141989;28;20318;-58
2021/12/25 05:37:58;;;;;;;63.77;35.67;;;1.30;99.90;;;;;;4143645;28;20329;-55
2021/12/25 05:40:01;;;;;;;67.00;35.43;;;1.30;99.90;;;;;;4141775;28;20283;-51
2021/12/25 05:42:02;;;;;;;74.33;36.50;;;1.30;99.90;;;;;;4143398;28;20802;-56
2021/12/25 05:44:04;;;;;;;70.80;36.97;;;1.30;99.90;;;;;;4142174;28;20360;-56
2021/12/25 05:46:07;;;;;;;65.80;35.53;;;1.30;99.90;;;;;;4142894;28;20287;-57
2021/12/25 05:48:09;;;;;;;68.70;35.07;;;1.30;99.90;;;;;;4142484;28;20439;-56
2021/12/25 05:50:10;;;;;;;73.83;37.00;;;1.30;99.90;;;;;;4142870;28;20309;-59
2021/12/25 05:52:11;;;;;;;65.97;36.53;;;1.30;99.90;;;;;;4142711;28;20267;-56
2021/12/25 05:54:12;;;;;;;75.50;38.27;;;1.20;99.90;;;;;;4141566;28;20321;-57
2021/12/25 05:56:14;;;;;;;66.67;37.10;;;1.20;99.90;;;;;;4143038;28;20290;-58
2021/12/25 05:58:15;;;;;;;66.57;37.37;;;1.10;99.90;;;;;;4141615;28;20313;-56
2021/12/25 06:00:18;;;;;;;74.70;38.83;;;1.10;99.90;;;;;;4142800;28;20275;-55
2021/12/25 06:02:19;;;;;;;72.60;37.43;;;1.10;99.90;;;;;;4141864;28;20276;-55
2021/12/25 06:04:20;;;;;;;73.93;38.63;;;1.00;99.90;;;;;;4142958;28;20327;-57
2021/12/25 06:06:22;;;;;;;71.73;37.63;;;1.00;99.90;;;;;;4141700;28;20275;-56
2021/12/25 06:08:25;;;;;;;73.17;37.23;;;1.10;99.90;;;;;;4142980;28;20275;-57
2021/12/25 06:10:26;;;;;;;75.27;38.90;;;1.10;99.90;;;;;;4141606;28;20672;-58
2021/12/25 06:12:28;;;;;;;74.97;37.40;;;1.00;99.90;;;;;;4142770;28;20739;-57
2021/12/25 06:14:29;;;;;;;69.37;36.27;;;1.10;99.90;;;;;;4141127;28;20259;-58
2021/12/25 06:16:30;;;;;;;68.60;35.43;;;1.00;99.90;;;;;;4142443;28;20280;-56
2021/12/25 06:18:31;;;;;;;69.37;36.87;;;1.00;99.90;;;;;;4142011;28;20794;-58
2021/12/25 06:20:32;;;;;;;68.60;35.23;;;1.00;99.90;;;;;;4142900;28;20264;-56
2021/12/25 06:22:34;;;;;;;76.33;37.13;;;1.10;99.90;;;;;;4141906;28;20280;-54
2021/12/25 06:24:35;;;;;;;70.50;36.37;;;1.10;99.90;;;;;;4141892;28;20295;-58
2021/12/25 06:26:38;;;;;;;69.77;35.97;;;1.20;99.90;;;;;;4142562;28;20255;-56
2021/12/25 06:28:39;;;;;;;63.40;35.77;;;1.20;99.90;;;;;;4141029;28;20252;-54
2021/12/25 06:30:43;;;;;;;69.73;36.37;;;1.30;99.90;;;;;;4142481;28;20275;-58
2021/12/25 06:32:44;;;;;;;63.87;33.20;;;1.40;99.90;;;;;;4141544;28;20322;-53
2021/12/25 06:34:46;;;;;;;58.20;31.77;;;1.60;99.90;;;;;;4142089;28;20275;-57
2021/12/25 06:36:47;;;;;;;53.63;30.27;;;1.80;99.90;;;;;;4141580;28;20692;-52
2021/12/25 06:38:48;;;;;;;59.27;31.83;;;1.90;99.90;;;;;;4142398;28;21074;-59
2021/12/25 06:40:49;;;;;;;55.30;30.27;;;2.10;99.90;;;;;;4141192;28;20272;-56
2021/12/25 06:42:51;;;;;;;62.50;33.20;;;2.10;99.90;;;;;;4142367;28;20756;-53
2021/12/25 06:44:52;;;;;;;55.27;30.40;;;2.20;99.90;;;;;;4139499;28;20314;-57
2021/12/25 06:46:55;;;;;;;56.87;30.37;;;2.20;99.90;;;;;;4142294;28;20272;-63
2021/12/25 06:48:56;;;;;;;64.50;30.97;;;2.20;99.90;;;;;;4141447;28;20256;-55
2021/12/25 06:50:57;;;;;;;51.60;28.90;;;2.10;99.90;;;;;;4141889;28;20263;-58
2021/12/25 06:52:58;;;;;;;53.50;29.77;;;2.00;99.90;;;;;;4141825;28;20798;-57
2021/12/25 06:55:02;;;;;;;54.23;29.53;;;1.90;99.90;;;;;;4141178;28;20314;-64
2021/12/25 06:57:03;;;;;;;54.67;30.33;;;1.80;99.90;;;;;;4141608;28;20267;-65
2021/12/25 06:59:04;;;;;;;58.90;31.27;;;1.80;99.90;;;;;;4140493;28;20271;-56
2021/12/25 07:01:05;;;;;;;50.70;27.67;;;1.70;99.90;;;;;;4141386;28;21206;-56
2021/12/25 07:03:06;;;;;;;51.97;28.60;;;1.70;99.90;;;;;;4140234;28;20275;-56
2021/12/25 07:05:08;;;;;;;47.70;27.13;;;1.60;99.90;;;;;;4142478;28;20275;-56
2021/12/25 07:07:09;;;;;;;45.83;25.30;;;1.50;99.90;;;;;;4139710;28;20329;-56
2021/12/25 07:09:10;;;;;;;50.63;28.13;;;1.50;99.90;;;;;;4142149;28;20279;-56
2021/12/25 07:11:11;;;;;;;46.87;24.97;;;1.50;99.90;;;;;;4140385;28;20684;-58
2021/12/25 07:13:17;;;;;;;53.00;28.67;;;1.50;99.90;;;;;;4141616;28;20872;-54
2021/12/25 07:15:18;;;;;;;71.70;37.77;;;1.60;99.90;;;;;;4140307;28;20271;-61
2021/12/25 07:17:19;;;;;;;73.70;39.93;;;1.40;99.90;;;;;;4141997;28;20283;-56
2021/12/25 07:19:21;;;;;;;88.03;45.47;;;1.40;99.90;;;;;;4140784;28;20259;-57
2021/12/25 07:21:22;;;;;;;86.10;45.37;;;1.40;99.90;;;;;;4141506;28;20275;-56
2021/12/25 07:23:23;;;;;;;96.47;51.13;;;1.40;99.90;;;;;;4141017;28;20373;-60
2021/12/25 07:25:24;;;;;;;93.10;50.63;;;1.40;99.90;;;;;;4141376;28;20329;-55
2021/12/25 07:27:25;;;;;;;95.50;53.47;;;1.40;99.90;;;;;;4141597;28;20643;-55
2021/12/25 07:29:26;;;;;;;112.37;63.90;;;1.50;99.90;;;;;;4140228;28;20251;-58
2021/12/25 07:31:28;;;;;;;110.90;61.00;;;1.60;99.90;;;;;;4141380;28;20684;-56
2021/12/25 07:33:30;;;;;;;117.30;61.20;;;1.60;99.90;;;;;;4139622;28;20342;-55
2021/12/25 07:35:32;;;;;;;105.50;59.63;;;1.60;99.90;;;;;;4141774;28;20309;-55
2021/12/25 07:37:34;;;;;;;113.27;59.87;;;1.50;99.90;;;;;;4139889;28;20267;-55
2021/12/25 07:39:35;;;;;;;111.57;57.97;;;1.60;99.90;;;;;;4141231;28;20381;-58
2021/12/25 07:41:36;;;;;;;107.87;58.70;;;1.60;99.90;;;;;;4140212;28;20267;-54
2021/12/25 07:43:37;;;;;;;108.60;58.93;;;1.60;99.90;;;;;;4141404;28;20422;-69
2021/12/25 07:45:39;;;;;;;100.90;56.57;;;1.60;99.90;;;;;;4139888;28;20304;-52
2021/12/25 07:47:46;;;;;;;90.33;49.57;;;1.60;99.90;;;;;;4141117;28;20330;-56
2021/12/25 07:49:48;;;;;;;94.87;53.63;;;1.60;99.90;;;;;;4140214;28;20272;-57
2021/12/25 07:51:50;;;;;;;102.33;53.63;;;1.70;99.90;;;;;;4141620;28;20756;-54
2021/12/25 07:53:51;;;;;;;89.10;51.60;;;1.70;99.90;;;;;;4139624;28;20259;-55
2021/12/25 07:55:52;;;;;;;88.20;51.43;;;1.50;99.90;;;;;;4140785;28;20703;-56
2021/12/25 07:57:54;;;;;;;94.60;51.20;;;1.50;99.90;;;;;;4140522;28;20301;-57
2021/12/25 07:59:55;;;;;;;96.10;53.00;;;1.50;99.90;;;;;;4140190;28;20275;-55
2021/12/25 08:01:56;;;;;;;95.97;52.33;;;1.50;99.90;;;;;;4140266;28;20288;-54
2021/12/25 08:03:58;;;;;;;95.40;50.53;;;1.40;99.90;;;;;;4139991;28;20338;-55
2021/12/25 08:05:59;;;;;;;87.83;49.20;;;1.40;99.90;;;;;;4140901;28;20398;-55
2021/12/25 08:08:01;;;;;;;92.13;48.00;;;1.40;99.90;;;;;;4140011;28;20322;-57
2021/12/25 08:10:13;;;;;;;84.37;46.20;;;1.40;99.90;;;;;;4141474;28;20275;-54
2021/12/25 08:12:14;;;;;;;91.03;46.93;;;1.50;99.90;;;;;;4139280;28;20276;-55
2021/12/25 08:14:15;;;;;;;80.83;44.60;;;1.50;99.90;;;;;;4141274;28;20310;-56
2021/12/25 08:16:17;;;;;;;91.07;46.10;;;1.60;99.90;;;;;;4139657;28;20330;-56
2021/12/25 08:18:18;;;;;;;83.27;45.23;;;1.60;99.90;;;;;;4143725;28;20271;-57
2021/12/25 08:20:19;;;;;;;84.03;45.83;;;1.60;99.90;;;;;;4143376;28;20275;-56
2021/12/25 08:22:20;;;;;;;92.50;49.97;;;1.60;99.90;;;;;;4144320;28;20272;-59
2021/12/25 08:24:22;;;;;;;80.53;45.80;;;1.70;99.90;;;;;;4142493;28;20330;-55
2021/12/25 08:26:23;;;;;;;81.70;44.63;;;1.70;99.90;;;;;;4144064;28;20276;-56
2021/12/25 08:28:24;;;;;;;85.40;48.97;;;1.70;99.90;;;;;;4142940;28;20271;-53
2021/12/25 08:30:27;;;;;;;84.70;47.13;;;1.70;99.90;;;;;;4142310;28;20284;-58
2021/12/25 08:32:28;;;;;;;109.00;59.73;;;1.70;99.90;;;;;;4143659;28;20329;-55
2021/12/25 08:34:30;;;;;;;93.60;51.07;;;1.80;99.90;;;;;;4143131;28;20279;-55
2021/12/25 08:36:31;;;;;;;101.27;54.90;;;1.70;99.90;;;;;;4143612;28;20263;-54
2021/12/25 08:38:32;;;;;;;97.50;51.53;;;1.60;99.90;;;;;;4142306;28;20267;-54
2021/12/25 08:40:33;;;;;;;82.57;43.70;;;1.60;99.90;;;;;;4143643;28;20329;-62
2021/12/25 08:42:35;;;;;;;77.20;44.10;;;1.60;99.90;;;;;;4143116;28;20287;-57
2021/12/25 08:45:38;;;;;;;79.63;44.70;;;1.60;99.90;;;;;;4143602;28;20853;-58
2021/12/25 08:47:05;;;;;;;80.30;43.47;;;1.60;99.90;;;;;;4137148;28;20279;-57
2021/12/25 08:49:06;;;;;;;74.60;42.00;;;1.70;99.90;;;;;;4143873;28;20334;-57
2021/12/25 08:51:08;;;;;;;79.60;43.37;;;1.70;99.90;;;;;;4128758;28;20291;-59
2021/12/25 08:53:09;;;;;;;79.10;41.70;;;1.80;99.90;;;;;;4143858;28;20291;-55
2021/12/25 08:55:10;;;;;;;79.33;45.40;;;1.80;99.90;;;;;;4142930;28;20310;-63
2021/12/25 08:57:12;;;;;;;81.93;44.60;;;1.90;99.90;;;;;;4143451;28;20346;-59
2021/12/25 08:59:13;;;;;;;95.47;50.47;;;1.90;99.90;;;;;;4142162;28;20275;-57
2021/12/25 09:01:15;;;;;;;81.00;45.17;;;2.00;99.90;;;;;;4143079;28;20369;-66
2021/12/25 09:03:16;;;;;;;84.57;47.93;;;2.00;99.90;;;;;;4142653;28;20283;-59
2021/12/25 09:05:18;;;;;;;98.90;50.70;;;2.00;99.90;;;;;;4143558;28;20303;-50
2021/12/25 09:07:20;;;;;;;99.90;52.70;;;2.10;99.90;;;;;;4142633;28;20628;-55
2021/12/25 09:09:21;;;;;;;85.70;47.93;;;2.10;99.90;;;;;;4143553;28;20325;-55
2021/12/25 09:11:24;;;;;;;81.57;45.80;;;2.10;99.90;;;;;;4142803;28;20271;-57
2021/12/25 09:13:25;;;;;;;93.27;51.57;;;2.10;99.90;;;;;;4143106;28;20259;-59
2021/12/25 09:15:26;;;;;;;92.57;51.67;;;2.00;99.90;;;;;;4142733;28;20276;-57
2021/12/25 09:17:28;;;;;;;99.23;54.57;;;2.00;99.90;;;;;;4142426;28;20349;-57
2021/12/25 09:19:29;;;;;;;99.37;53.03;;;2.00;99.90;;;;;;4143885;28;20268;-56
2021/12/25 09:21:30;;;;;;;103.03;56.23;;;1.90;99.90;;;;;;4140962;28;20798;-57
2021/12/25 09:23:31;;;;;;;91.33;51.13;;;1.90;99.90;;;;;;4143370;28;20283;-55
2021/12/25 09:25:33;;;;;;;96.40;53.90;;;2.00;99.90;;;;;;4142148;28;20296;-57
2021/12/25 09:27:34;;;;;;;102.67;54.57;;;2.00;99.90;;;;;;4143381;28;20419;-55
2021/12/25 09:29:36;;;;;;;99.50;52.93;;;2.00;99.90;;;;;;4141146;28;20809;-56
2021/12/25 09:31:37;;;;;;;112.17;58.80;;;2.00;99.90;;;;;;4143306;28;20329;-61
2021/12/25 09:33:38;;;;;;;101.10;52.67;;;2.00;99.90;;;;;;4140504;28;20338;-66
2021/12/25 09:35:40;;;;;;;87.67;49.77;;;2.00;99.90;;;;;;4143523;28;21195;-56
2021/12/25 09:37:41;;;;;;;93.27;51.30;;;2.00;99.90;;;;;;4141985;28;20271;-57
2021/12/25 09:39:42;;;;;;;95.90;51.90;;;2.10;99.90;;;;;;4142672;28;20298;-66
2021/12/25 09:41:43;;;;;;;89.53;47.67;;;2.10;99.90;;;;;;4142354;28;20764;-56
2021/12/25 09:43:47;;;;;;;86.37;47.87;;;2.20;99.90;;;;;;4142328;28;20272;-55
2021/12/25 09:45:48;;;;;;;84.70;46.33;;;2.30;99.90;;;;;;4142475;28;20302;-57
2021/12/25 09:47:50;;;;;;;78.33;44.07;;;2.30;99.90;;;;;;4142180;28;20287;-55
2021/12/25 09:49:51;;;;;;;88.27;49.40;;;2.30;99.90;;;;;;4143231;28;20268;-58
2021/12/25 09:51:53;;;;;;;96.07;52.30;;;2.30;99.90;;;;;;4141806;28;20337;-52
2021/12/25 09:53:56;;;;;;;84.67;47.27;;;2.50;99.90;;;;;;4143209;28;20275;-60
2021/12/25 09:55:57;;;;;;;82.60;46.33;;;2.60;99.90;;;;;;4141906;28;20271;-54
2021/12/25 09:57:58;;;;;;;74.27;43.60;;;2.60;99.90;;;;;;4142558;28;20291;-57
2021/12/25 10:00:09;;;;;;;88.73;48.63;;;2.60;99.90;;;;;;4141498;28;20271;-57
2021/12/25 10:02:13;;;;;;;;;;;2.60;99.90;;;;;;4143224;28;20578;-56
2021/12/25 10:04:37;;;;;;;87.17;48.30;;;2.50;99.90;;;;;;4141647;28;19917;-56
2021/12/25 10:06:44;;;;;;;99.93;52.10;;;2.40;99.90;;;;;;4126614;28;20275;-53
2021/12/25 10:08:45;;;;;;;97.47;53.53;;;2.20;99.90;;;;;;4125359;28;20732;-56
2021/12/25 10:10:54;;;;;;;102.23;53.77;;;2.10;99.90;;;;;;4126420;28;20847;-60
2021/12/25 10:12:55;;;;;;;102.27;56.97;;;2.10;99.90;;;;;;4125605;28;20294;-55
2021/12/25 10:14:57;;;;;;;111.03;62.57;;;2.10;99.90;;;;;;4126006;28;20268;-59
2021/12/25 10:16:58;;;;;;;105.27;55.53;;;2.20;99.90;;;;;;4125033;28;20355;-55
2021/12/25 10:19:18;;;;;;;98.10;51.63;;;2.20;99.90;;;;;;4126477;28;20276;-56
2021/12/25 10:21:24;;;;;;;98.30;52.03;;;2.10;99.90;;;;;;4125826;28;20346;-55
2021/12/25 10:23:29;;;;;;;103.37;55.23;;;2.20;99.90;;;;;;4126378;28;20619;-57
2021/12/25 10:25:38;;;;;;;100.40;56.30;;;2.20;99.90;;;;;;4125088;28;20342;-52
2021/12/25 10:27:57;;;;;;;101.97;56.23;;;2.30;99.90;;;;;;4126506;28;20338;-53
2021/12/25 10:30:00;;;;;;;113.07;58.07;;;2.30;99.90;;;;;;4124612;28;20737;-55
2021/12/25 10:32:23;;;;;;;97.43;53.70;;;2.30;99.90;;;;;;4126412;28;20277;-57
2021/12/25 10:34:29;;;;;;;94.00;51.80;;;2.50;99.90;;;;;;4125139;28;20268;-56
2021/12/25 10:36:36;;;;;;;98.20;53.90;;;2.40;99.90;;;;;;4126509;28;20303;-56
2021/12/25 10:38:38;;;;;;;95.77;51.40;;;2.50;99.90;;;;;;4125079;28;20272;-54
2021/12/25 10:40:39;;;;;;;100.67;52.13;;;2.50;99.90;;;;;;4125814;28;20354;-53
2021/12/25 10:42:43;;;;;;;90.73;49.77;;;2.60;99.90;;;;;;4124710;28;20280;-55
2021/12/25 10:44:55;;;;;;;90.87;51.60;;;2.50;99.90;;;;;;4125052;28;20300;-54
2021/12/25 10:46:57;;;;;;;91.63;52.27;;;2.40;99.90;;;;;;4124986;28;20276;-56
2021/12/25 10:49:09;;;;;;;109.00;58.70;;;2.40;99.90;;;;;;4125851;28;20342;-59
2021/12/25 10:51:37;;;;;;;99.07;54.07;;;2.40;99.90;;;;;;4124003;28;20272;-54
2021/12/25 10:53:42;;;;;;;97.50;54.80;;;2.40;99.90;;;;;;4124432;28;20342;-54
2021/12/25 10:55:43;;;;;;;99.60;54.90;;;2.40;99.90;;;;;;4124603;28;20334;-54
2021/12/25 10:57:56;;;;;;;111.57;59.47;;;2.40;99.90;;;;;;4125600;28;20392;-58
2021/12/25 10:59:58;;;;;;;126.93;65.87;;;2.40;99.90;;;;;;4124370;28;20323;-57
2021/12/25 11:01:59;;;;;;;127.07;65.50;;;2.40;99.90;;;;;;4125254;28;20291;-56
2021/12/25 11:04:00;;;;;;;114.63;64.63;;;2.30;99.90;;;;;;4124594;28;20311;-58
2021/12/25 11:06:05;;;;;;;119.37;63.73;;;2.20;99.90;;;;;;4125277;28;20323;-57
2021/12/25 11:08:13;;;;;;;119.20;63.37;;;2.20;99.90;;;;;;4124530;28;20276;-53
2021/12/25 11:10:18;;;;;;;116.80;61.33;;;2.20;99.90;;;;;;4124941;28;20264;-57
2021/12/25 11:22:56;;;;;;;118.32;64.15;;;2.20;99.90;;;;;;4205079;27;20429;-55
2021/12/25 11:24:58;;;;;;;123.43;65.80;;;2.40;99.90;;;;;;4204141;28;20040;-54
2021/12/25 11:27:03;;;;;;;125.43;65.97;;;2.30;99.90;;;;;;4204644;28;20699;-57
2021/12/25 11:29:06;;;;;;;117.03;65.53;;;2.30;99.90;;;;;;4203127;28;20304;-55
2021/12/25 11:31:07;;;;;;;123.47;64.60;;;2.20;99.90;;;;;;4205220;28;20350;-53
2021/12/25 11:33:09;;;;;;;128.53;69.93;;;2.20;99.90;;;;;;4203268;28;20277;-55
2021/12/25 11:35:11;;;;;;;136.63;72.27;;;2.20;99.90;;;;;;4204874;28;20280;-55
2021/12/25 11:37:13;;;;;;;162.83;81.10;;;2.20;99.90;;;;;;4203220;28;20373;-52
2021/12/25 11:39:15;;;;;;;223.00;92.50;;;2.20;99.90;;;;;;4205077;28;20338;-55
2021/12/25 11:41:17;;;;;;;200.43;85.43;;;2.10;99.90;;;;;;4203289;28;20273;-55
2021/12/25 11:43:40;;;;;;;210.33;86.10;;;2.10;99.90;;;;;;4204122;28;20289;-54
2021/12/25 11:45:47;;;;;;;275.97;103.73;;;2.10;99.90;;;;;;4203534;28;20334;-54
2021/12/25 11:47:52;;;;;;;248.13;98.57;;;2.00;99.90;;;;;;4204920;28;20347;-55
2021/12/25 11:49:55;;;;;;;239.37;98.20;;;2.00;99.90;;;;;;4203867;28;20278;-52
2021/12/25 11:52:18;;;;;;;200.20;88.97;;;2.10;99.90;;;;;;4204706;28;20281;-57
2021/12/25 11:57:02;;;;;;;177.80;80.90;;;2.20;99.90;;;;;;4204267;28;20410;-59
2021/12/25 11:59:17;;;;;;;173.73;77.87;;;2.20;99.90;;;;;;4202860;28;20265;-60
2021/12/25 12:01:19;;;;;;;162.90;77.30;;;2.30;99.90;;;;;;4204764;28;20429;-60
2021/12/25 12:03:44;;;;;;;138.67;68.33;;;2.30;99.90;;;;;;4202718;28;20692;-58
2021/12/25 12:05:47;;;;;;;112.83;62.53;;;2.30;99.90;;;;;;4204051;28;20277;-57